West Jefferson, NC (28694)

11:17 AM EDT on October 21, 2014 (GMT -0400)
Downtown West Jefferson | Change Station
CLOSE
Current Station
Personal Weather Station
Location: West Jefferson, NC
Elevation: 2982 ft
Nearby Weather Stations

Elev 2982 ft 36.40 °N, 81.49 °W | Updated 17 minutes ago

Overcast
Overcast
53.8 °F
Feels Like 53.8 °F
N
6.0
Wind Variable Wind from NW
Gusts 10.0 mph

Today
High -- | Low -- °F
--% Chance of Precip.
Yesterday
High -- | Low -- °F
Precip. -- in
7:38 AM 6:42 PM
Waning Crescent, 5% visible
Pressure 29.97 in
Visibility 10.0 miles
Clouds Mostly Cloudy 2800 ft
Overcast 3200 ft
Dew Point 42 °F
Humidity 64%
Rainfall 0.00 in
Snow Depth Not available.
UV 1 out of 12
Pollen 1.60 out of 12
Air Quality Not available.
Flu Activity Sporadic
METAR KGEV 211455Z AUTO 29011G17KT 10SM BKN028 OVC032 12/05 A2997 RMK AO2 T01220045

More Conditions Fewer Conditions

Pressure 29.97 in
Visibility 10.0 miles
Clouds Mostly Cloudy 2800 ft
Overcast 3200 ft
Dew Point 42 °F
Humidity 64%
Rainfall 0.00 in
Snow Depth Not available.
UV 1 out of 12
Pollen 1.60 out of 12
Air Quality Not available.
Flu Activity Sporadic
METAR KGEV 211455Z AUTO 29011G17KT 10SM BKN028 OVC032 12/05 A2997 RMK AO2 T01220045

More Conditions Fewer Conditions

10-Day Weather Forecast

Almanac

Astronomy

Oct. 21, 2014 Rise Set
Actual Time 7:38 AM EDT 6:42 PM EDT
Civil Twilight 7:12 AM EDT 7:08 PM EDT
Nautical Twilight 6:42 AM EDT 7:38 PM EDT
Astronomical Twilight 6:12 AM EDT 8:07 PM EDT
Moon 5:25 AM EDT 5:32 PM EDT
Length of Visible Light 11h 55m
Length of Day
11h 03m
Tomorrow will be 2m 10s shorter.
Waning Crescent, 5% of the Moon is Illuminated
Today
Waning Crescent
Oct 23
New
Oct 30
First Quarter
Nov 6
Full
Nov 14
Last Quarter

Today's Extremes

State Highs State Lows

Community

WunderPhotos

Upload Photos

1,763,684 photos uploaded!

WunderBlogs® & News

By Dr. Jeff Masters
Director of Meteorology, Weather Underground
By Kari Strenfel
Meteorologist, Weather Underground
By Christopher C. Burt
Weather Historian, Weather Underground
October 21, 2014
October 21, 2014
October 21, 2014

Nearby

Snow Depth

Station Depth Elevation
No new snow has been reported.

Earthquake Activity

City Distance Mag. Time & Date
No recent earthquake activity has been reported nearby.
Minimum magnitude displayed is 2.5.

Coastal Water Temperatures

Place Temperature
No Stations Reporting

Nearby Weather Stations